sensor_id;sensor_type;location;lat;lon;timestamp;P1;durP1;ratioP1;P2;durP2;ratioP2
75687;SDS011;64300;45.034;38.910;2023-03-25T00:00:04;22.30;;;9.68;;
75687;SDS011;64300;45.034;38.910;2023-03-25T00:02:37;19.33;;;8.18;;
75687;SDS011;64300;45.034;38.910;2023-03-25T00:05:06;20.85;;;9.55;;
75687;SDS011;64300;45.034;38.910;2023-03-25T00:07:32;20.92;;;8.25;;
75687;SDS011;64300;45.034;38.910;2023-03-25T00:09:58;22.60;;;9.40;;
75687;SDS011;64300;45.034;38.910;2023-03-25T00:12:23;21.02;;;9.32;;
75687;SDS011;64300;45.034;38.910;2023-03-25T00:14:50;21.13;;;8.48;;
75687;SDS011;64300;45.034;38.910;2023-03-25T00:17:20;19.33;;;8.77;;
75687;SDS011;64300;45.034;38.910;2023-03-25T00:19:46;23.15;;;9.48;;
75687;SDS011;64300;45.034;38.910;2023-03-25T00:22:15;23.15;;;9.13;;
75687;SDS011;64300;45.034;38.910;2023-03-25T00:24:44;17.70;;;8.68;;
75687;SDS011;64300;45.034;38.910;2023-03-25T00:27:10;21.85;;;9.75;;
75687;SDS011;64300;45.034;38.910;2023-03-25T00:29:41;27.60;;;8.70;;
75687;SDS011;64300;45.034;38.910;2023-03-25T00:32:08;23.35;;;8.60;;
75687;SDS011;64300;45.034;38.910;2023-03-25T00:34:35;23.42;;;8.75;;
75687;SDS011;64300;45.034;38.910;2023-03-25T00:37:09;19.58;;;9.02;;
75687;SDS011;64300;45.034;38.910;2023-03-25T00:39:35;19.95;;;9.57;;
75687;SDS011;64300;45.034;38.910;2023-03-25T00:42:02;19.70;;;8.48;;
75687;SDS011;64300;45.034;38.910;2023-03-25T00:44:28;17.88;;;7.95;;
75687;SDS011;64300;45.034;38.910;2023-03-25T00:46:55;22.65;;;8.45;;
75687;SDS011;64300;45.034;38.910;2023-03-25T00:49:22;16.98;;;8.63;;
75687;SDS011;64300;45.034;38.910;2023-03-25T00:51:49;27.02;;;8.18;;
75687;SDS011;64300;45.034;38.910;2023-03-25T00:54:16;17.52;;;8.32;;
75687;SDS011;64300;45.034;38.910;2023-03-25T00:56:42;15.10;;;7.50;;
75687;SDS011;64300;45.034;38.910;2023-03-25T00:59:09;17.35;;;7.95;;
75687;SDS011;64300;45.034;38.910;2023-03-25T01:01:35;17.60;;;7.53;;
75687;SDS011;64300;45.034;38.910;2023-03-25T01:04:05;21.98;;;7.13;;
75687;SDS011;64300;45.034;38.910;2023-03-25T01:06:37;20.38;;;7.05;;
75687;SDS011;64300;45.034;38.910;2023-03-25T01:09:12;15.15;;;7.35;;
75687;SDS011;64300;45.034;38.910;2023-03-25T01:11:42;24.10;;;7.60;;
75687;SDS011;64300;45.034;38.910;2023-03-25T01:14:16;21.75;;;7.40;;
75687;SDS011;64300;45.034;38.910;2023-03-25T01:16:44;15.98;;;6.88;;
75687;SDS011;64300;45.034;38.910;2023-03-25T01:19:10;12.52;;;6.55;;
75687;SDS011;64300;45.034;38.910;2023-03-25T01:24:41;20.55;;;7.70;;
75687;SDS011;64300;45.034;38.910;2023-03-25T01:27:07;19.08;;;7.03;;
75687;SDS011;64300;45.034;38.910;2023-03-25T01:29:32;17.55;;;7.07;;
75687;SDS011;64300;45.034;38.910;2023-03-25T01:34:44;18.27;;;6.93;;
75687;SDS011;64300;45.034;38.910;2023-03-25T01:37:11;15.82;;;6.85;;
75687;SDS011;64300;45.034;38.910;2023-03-25T01:39:37;15.02;;;7.90;;
75687;SDS011;64300;45.034;38.910;2023-03-25T01:42:03;17.40;;;7.88;;
75687;SDS011;64300;45.034;38.910;2023-03-25T01:47:05;16.63;;;7.55;;
75687;SDS011;64300;45.034;38.910;2023-03-25T01:49:34;14.05;;;6.85;;
75687;SDS011;64300;45.034;38.910;2023-03-25T01:52:16;19.42;;;8.18;;
75687;SDS011;64300;45.034;38.910;2023-03-25T01:54:45;16.48;;;6.97;;
75687;SDS011;64300;45.034;38.910;2023-03-25T01:57:15;16.30;;;8.05;;
75687;SDS011;64300;45.034;38.910;2023-03-25T01:59:45;15.55;;;7.25;;
75687;SDS011;64300;45.034;38.910;2023-03-25T02:02:11;14.90;;;7.65;;
75687;SDS011;64300;45.034;38.910;2023-03-25T02:07:24;19.98;;;7.85;;
75687;SDS011;64300;45.034;38.910;2023-03-25T02:09:58;17.63;;;7.70;;
75687;SDS011;64300;45.034;38.910;2023-03-25T02:12:26;15.45;;;7.70;;
75687;SDS011;64300;45.034;38.910;2023-03-25T02:14:55;14.20;;;6.97;;
75687;SDS011;64300;45.034;38.910;2023-03-25T02:28:49;14.30;;;7.32;;
75687;SDS011;64300;45.034;38.910;2023-03-25T02:34:22;18.25;;;8.25;;
75687;SDS011;64300;45.034;38.910;2023-03-25T02:40:19;15.50;;;7.20;;
75687;SDS011;64300;45.034;38.910;2023-03-25T02:43:00;16.92;;;7.75;;
75687;SDS011;64300;45.034;38.910;2023-03-25T02:45:36;17.92;;;7.18;;
75687;SDS011;64300;45.034;38.910;2023-03-25T02:48:10;21.45;;;7.68;;
75687;SDS011;64300;45.034;38.910;2023-03-25T02:50:44;17.20;;;8.57;;
75687;SDS011;64300;45.034;38.910;2023-03-25T02:53:18;13.82;;;7.93;;
75687;SDS011;64300;45.034;38.910;2023-03-25T02:55:49;18.83;;;7.97;;
75687;SDS011;64300;45.034;38.910;2023-03-25T02:58:17;17.60;;;8.35;;
75687;SDS011;64300;45.034;38.910;2023-03-25T03:00:47;16.67;;;8.40;;
75687;SDS011;64300;45.034;38.910;2023-03-25T03:03:14;16.67;;;7.78;;
75687;SDS011;64300;45.034;38.910;2023-03-25T03:05:43;17.52;;;8.45;;
75687;SDS011;64300;45.034;38.910;2023-03-25T03:24:39;17.63;;;7.65;;
75687;SDS011;64300;45.034;38.910;2023-03-25T03:27:16;20.15;;;8.43;;
75687;SDS011;64300;45.034;38.910;2023-03-25T03:32:55;19.85;;;8.20;;
75687;SDS011;64300;45.034;38.910;2023-03-25T03:35:29;19.17;;;8.18;;
75687;SDS011;64300;45.034;38.910;2023-03-25T03:38:00;18.77;;;8.77;;
75687;SDS011;64300;45.034;38.910;2023-03-25T03:40:33;18.90;;;7.85;;
75687;SDS011;64300;45.034;38.910;2023-03-25T03:43:02;20.17;;;8.60;;
75687;SDS011;64300;45.034;38.910;2023-03-25T03:45:37;21.08;;;8.95;;
75687;SDS011;64300;45.034;38.910;2023-03-25T03:48:25;21.40;;;9.02;;
75687;SDS011;64300;45.034;38.910;2023-03-25T03:50:59;18.70;;;8.48;;
75687;SDS011;64300;45.034;38.910;2023-03-25T03:53:36;18.88;;;8.73;;
75687;SDS011;64300;45.034;38.910;2023-03-25T03:56:07;18.48;;;8.48;;
75687;SDS011;64300;45.034;38.910;2023-03-25T03:58:41;20.23;;;8.90;;
75687;SDS011;64300;45.034;38.910;2023-03-25T04:01:13;18.05;;;8.60;;
75687;SDS011;64300;45.034;38.910;2023-03-25T04:03:45;19.33;;;8.57;;
75687;SDS011;64300;45.034;38.910;2023-03-25T04:06:42;18.75;;;9.40;;
75687;SDS011;64300;45.034;38.910;2023-03-25T04:11:53;21.75;;;9.30;;
75687;SDS011;64300;45.034;38.910;2023-03-25T04:14:21;17.65;;;8.20;;
75687;SDS011;64300;45.034;38.910;2023-03-25T04:16:49;19.85;;;8.73;;
75687;SDS011;64300;45.034;38.910;2023-03-25T04:19:17;14.60;;;8.20;;
75687;SDS011;64300;45.034;38.910;2023-03-25T04:21:44;18.55;;;9.07;;
75687;SDS011;64300;45.034;38.910;2023-03-25T04:24:12;19.27;;;8.70;;
75687;SDS011;64300;45.034;38.910;2023-03-25T04:26:41;20.17;;;9.20;;
75687;SDS011;64300;45.034;38.910;2023-03-25T04:29:07;22.33;;;9.18;;
75687;SDS011;64300;45.034;38.910;2023-03-25T04:31:34;15.70;;;8.38;;
75687;SDS011;64300;45.034;38.910;2023-03-25T04:34:02;18.88;;;8.63;;
75687;SDS011;64300;45.034;38.910;2023-03-25T04:36:29;23.50;;;9.40;;
75687;SDS011;64300;45.034;38.910;2023-03-25T04:39:02;18.27;;;9.20;;
75687;SDS011;64300;45.034;38.910;2023-03-25T04:41:28;18.98;;;8.52;;
75687;SDS011;64300;45.034;38.910;2023-03-25T04:43:56;20.83;;;9.07;;
75687;SDS011;64300;45.034;38.910;2023-03-25T04:46:22;22.08;;;9.18;;
75687;SDS011;64300;45.034;38.910;2023-03-25T04:48:48;28.05;;;9.32;;
75687;SDS011;64300;45.034;38.910;2023-03-25T04:51:14;17.02;;;8.68;;
75687;SDS011;64300;45.034;38.910;2023-03-25T04:53:40;16.17;;;8.27;;
75687;SDS011;64300;45.034;38.910;2023-03-25T04:56:08;28.48;;;9.85;;
75687;SDS011;64300;45.034;38.910;2023-03-25T04:58:40;21.60;;;8.98;;
75687;SDS011;64300;45.034;38.910;2023-03-25T05:01:26;21.20;;;9.15;;
75687;SDS011;64300;45.034;38.910;2023-03-25T05:03:57;18.30;;;8.75;;
75687;SDS011;64300;45.034;38.910;2023-03-25T05:06:37;17.10;;;8.90;;
75687;SDS011;64300;45.034;38.910;2023-03-25T05:09:04;16.88;;;7.95;;
75687;SDS011;64300;45.034;38.910;2023-03-25T05:11:35;16.58;;;8.00;;
75687;SDS011;64300;45.034;38.910;2023-03-25T05:14:04;22.20;;;8.35;;
75687;SDS011;64300;45.034;38.910;2023-03-25T05:16:31;17.58;;;8.15;;
75687;SDS011;64300;45.034;38.910;2023-03-25T05:18:57;18.30;;;9.10;;
75687;SDS011;64300;45.034;38.910;2023-03-25T05:21:23;16.40;;;8.38;;
75687;SDS011;64300;45.034;38.910;2023-03-25T05:23:49;14.60;;;7.80;;
75687;SDS011;64300;45.034;38.910;2023-03-25T05:26:16;18.38;;;8.63;;
75687;SDS011;64300;45.034;38.910;2023-03-25T05:28:43;25.80;;;8.85;;
75687;SDS011;64300;45.034;38.910;2023-03-25T05:31:09;15.88;;;7.90;;
75687;SDS011;64300;45.034;38.910;2023-03-25T05:33:36;14.52;;;7.88;;
75687;SDS011;64300;45.034;38.910;2023-03-25T05:36:11;19.08;;;7.07;;
75687;SDS011;64300;45.034;38.910;2023-03-25T05:38:38;19.73;;;7.00;;
75687;SDS011;64300;45.034;38.910;2023-03-25T05:41:06;11.13;;;6.32;;
75687;SDS011;64300;45.034;38.910;2023-03-25T05:43:37;11.43;;;6.28;;
75687;SDS011;64300;45.034;38.910;2023-03-25T05:46:03;18.08;;;6.75;;
75687;SDS011;64300;45.034;38.910;2023-03-25T05:48:30;14.50;;;7.60;;
75687;SDS011;64300;45.034;38.910;2023-03-25T05:51:05;14.48;;;7.03;;
75687;SDS011;64300;45.034;38.910;2023-03-25T05:53:47;16.75;;;6.85;;
75687;SDS011;64300;45.034;38.910;2023-03-25T05:56:16;12.38;;;6.45;;
75687;SDS011;64300;45.034;38.910;2023-03-25T05:58:44;15.13;;;6.10;;
75687;SDS011;64300;45.034;38.910;2023-03-25T06:01:11;14.23;;;7.00;;
75687;SDS011;64300;45.034;38.910;2023-03-25T06:03:41;16.58;;;6.88;;
75687;SDS011;64300;45.034;38.910;2023-03-25T06:06:09;17.83;;;7.13;;
75687;SDS011;64300;45.034;38.910;2023-03-25T06:08:43;11.82;;;6.45;;
75687;SDS011;64300;45.034;38.910;2023-03-25T06:11:14;13.02;;;6.82;;
75687;SDS011;64300;45.034;38.910;2023-03-25T06:13:42;12.32;;;6.53;;
75687;SDS011;64300;45.034;38.910;2023-03-25T06:16:16;12.90;;;6.82;;
75687;SDS011;64300;45.034;38.910;2023-03-25T06:18:47;12.82;;;6.57;;
75687;SDS011;64300;45.034;38.910;2023-03-25T06:21:18;12.93;;;6.53;;
75687;SDS011;64300;45.034;38.910;2023-03-25T06:23:45;13.43;;;6.20;;
75687;SDS011;64300;45.034;38.910;2023-03-25T06:26:15;13.32;;;6.10;;
75687;SDS011;64300;45.034;38.910;2023-03-25T06:28:42;11.80;;;5.85;;
75687;SDS011;64300;45.034;38.910;2023-03-25T06:31:12;9.82;;;5.57;;
75687;SDS011;64300;45.034;38.910;2023-03-25T06:33:41;13.63;;;5.43;;
75687;SDS011;64300;45.034;38.910;2023-03-25T06:36:23;10.65;;;6.35;;
75687;SDS011;64300;45.034;38.910;2023-03-25T06:38:49;11.98;;;6.15;;
75687;SDS011;64300;45.034;38.910;2023-03-25T06:44:25;11.70;;;5.78;;
75687;SDS011;64300;45.034;38.910;2023-03-25T06:47:10;11.70;;;6.18;;
75687;SDS011;64300;45.034;38.910;2023-03-25T06:54:51;14.30;;;6.25;;
75687;SDS011;64300;45.034;38.910;2023-03-25T06:57:16;14.73;;;5.68;;
75687;SDS011;64300;45.034;38.910;2023-03-25T06:59:42;14.38;;;6.38;;
75687;SDS011;64300;45.034;38.910;2023-03-25T07:02:11;16.25;;;6.43;;
75687;SDS011;64300;45.034;38.910;2023-03-25T07:04:38;12.50;;;6.40;;
75687;SDS011;64300;45.034;38.910;2023-03-25T07:07:05;13.43;;;6.78;;
75687;SDS011;64300;45.034;38.910;2023-03-25T07:09:32;13.93;;;6.72;;
75687;SDS011;64300;45.034;38.910;2023-03-25T07:11:58;12.70;;;6.20;;
75687;SDS011;64300;45.034;38.910;2023-03-25T07:14:24;12.70;;;6.80;;
75687;SDS011;64300;45.034;38.910;2023-03-25T07:16:50;13.18;;;6.60;;
75687;SDS011;64300;45.034;38.910;2023-03-25T07:19:16;10.45;;;5.90;;
75687;SDS011;64300;45.034;38.910;2023-03-25T07:21:42;13.70;;;6.20;;
75687;SDS011;64300;45.034;38.910;2023-03-25T07:24:08;11.38;;;6.28;;
75687;SDS011;64300;45.034;38.910;2023-03-25T07:26:34;10.73;;;6.13;;
75687;SDS011;64300;45.034;38.910;2023-03-25T07:28:59;12.05;;;6.15;;
75687;SDS011;64300;45.034;38.910;2023-03-25T07:31:25;14.18;;;6.43;;
75687;SDS011;64300;45.034;38.910;2023-03-25T07:33:54;17.30;;;6.47;;
75687;SDS011;64300;45.034;38.910;2023-03-25T07:36:20;12.35;;;6.38;;
75687;SDS011;64300;45.034;38.910;2023-03-25T07:38:47;15.20;;;6.22;;
75687;SDS011;64300;45.034;38.910;2023-03-25T07:41:13;14.18;;;5.93;;
75687;SDS011;64300;45.034;38.910;2023-03-25T07:43:57;12.00;;;6.32;;
75687;SDS011;64300;45.034;38.910;2023-03-25T07:46:30;11.75;;;5.55;;
75687;SDS011;64300;45.034;38.910;2023-03-25T07:48:56;11.73;;;5.55;;
75687;SDS011;64300;45.034;38.910;2023-03-25T07:51:25;12.35;;;5.22;;
75687;SDS011;64300;45.034;38.910;2023-03-25T07:53:51;12.65;;;5.30;;
75687;SDS011;64300;45.034;38.910;2023-03-25T07:59:27;10.70;;;5.63;;
75687;SDS011;64300;45.034;38.910;2023-03-25T08:01:53;12.25;;;4.80;;
75687;SDS011;64300;45.034;38.910;2023-03-25T08:04:19;9.98;;;5.13;;
75687;SDS011;64300;45.034;38.910;2023-03-25T08:06:45;8.90;;;4.35;;
75687;SDS011;64300;45.034;38.910;2023-03-25T08:09:11;10.13;;;4.70;;
75687;SDS011;64300;45.034;38.910;2023-03-25T08:11:37;10.98;;;4.95;;
75687;SDS011;64300;45.034;38.910;2023-03-25T08:17:06;12.25;;;5.20;;
75687;SDS011;64300;45.034;38.910;2023-03-25T08:19:32;10.43;;;5.60;;
75687;SDS011;64300;45.034;38.910;2023-03-25T08:21:58;11.45;;;4.60;;
75687;SDS011;64300;45.034;38.910;2023-03-25T08:24:25;10.25;;;4.80;;
75687;SDS011;64300;45.034;38.910;2023-03-25T08:26:54;13.18;;;5.25;;
75687;SDS011;64300;45.034;38.910;2023-03-25T08:29:20;9.55;;;5.38;;
75687;SDS011;64300;45.034;38.910;2023-03-25T08:31:48;9.93;;;4.80;;
75687;SDS011;64300;45.034;38.910;2023-03-25T08:34:17;12.50;;;5.72;;
75687;SDS011;64300;45.034;38.910;2023-03-25T08:36:44;14.25;;;6.47;;
75687;SDS011;64300;45.034;38.910;2023-03-25T08:39:10;11.85;;;6.47;;
75687;SDS011;64300;45.034;38.910;2023-03-25T08:41:41;14.48;;;6.10;;
75687;SDS011;64300;45.034;38.910;2023-03-25T08:44:10;14.95;;;6.38;;
75687;SDS011;64300;45.034;38.910;2023-03-25T08:46:36;14.02;;;6.03;;
75687;SDS011;64300;45.034;38.910;2023-03-25T08:49:03;12.43;;;6.50;;
75687;SDS011;64300;45.034;38.910;2023-03-25T08:51:29;13.18;;;6.63;;
75687;SDS011;64300;45.034;38.910;2023-03-25T08:53:57;16.25;;;7.32;;
75687;SDS011;64300;45.034;38.910;2023-03-25T08:56:23;15.02;;;6.65;;
75687;SDS011;64300;45.034;38.910;2023-03-25T08:58:49;10.65;;;7.40;;
75687;SDS011;64300;45.034;38.910;2023-03-25T09:01:15;12.18;;;6.63;;
75687;SDS011;64300;45.034;38.910;2023-03-25T09:03:40;10.95;;;6.63;;
75687;SDS011;64300;45.034;38.910;2023-03-25T09:06:08;11.60;;;5.85;;
75687;SDS011;64300;45.034;38.910;2023-03-25T09:08:35;11.77;;;6.28;;
75687;SDS011;64300;45.034;38.910;2023-03-25T09:11:02;14.05;;;6.38;;
75687;SDS011;64300;45.034;38.910;2023-03-25T09:13:28;11.27;;;6.22;;
75687;SDS011;64300;45.034;38.910;2023-03-25T09:15:56;12.95;;;6.35;;
75687;SDS011;64300;45.034;38.910;2023-03-25T09:18:23;14.68;;;7.05;;
75687;SDS011;64300;45.034;38.910;2023-03-25T09:20:49;12.02;;;7.22;;
75687;SDS011;64300;45.034;38.910;2023-03-25T09:23:17;14.57;;;7.82;;
75687;SDS011;64300;45.034;38.910;2023-03-25T09:25:43;11.68;;;6.13;;
75687;SDS011;64300;45.034;38.910;2023-03-25T09:28:10;11.48;;;6.53;;
75687;SDS011;64300;45.034;38.910;2023-03-25T09:30:36;12.30;;;6.32;;
75687;SDS011;64300;45.034;38.910;2023-03-25T09:33:02;13.73;;;6.43;;
75687;SDS011;64300;45.034;38.910;2023-03-25T09:35:28;13.13;;;6.63;;
75687;SDS011;64300;45.034;38.910;2023-03-25T09:37:54;15.02;;;7.35;;
75687;SDS011;64300;45.034;38.910;2023-03-25T09:46:17;15.55;;;7.05;;
75687;SDS011;64300;45.034;38.910;2023-03-25T09:48:44;16.35;;;7.60;;
75687;SDS011;64300;45.034;38.910;2023-03-25T09:51:14;10.45;;;6.07;;
75687;SDS011;64300;45.034;38.910;2023-03-25T09:53:48;13.38;;;6.57;;
75687;SDS011;64300;45.034;38.910;2023-03-25T09:56:20;14.20;;;6.38;;
75687;SDS011;64300;45.034;38.910;2023-03-25T09:59:00;13.85;;;7.20;;
75687;SDS011;64300;45.034;38.910;2023-03-25T10:01:59;12.27;;;6.93;;
75687;SDS011;64300;45.034;38.910;2023-03-25T10:05:38;17.52;;;7.95;;
75687;SDS011;64300;45.034;38.910;2023-03-25T10:08:08;15.68;;;8.20;;
75687;SDS011;64300;45.034;38.910;2023-03-25T10:13:54;15.93;;;7.60;;
75687;SDS011;64300;45.034;38.910;2023-03-25T10:16:47;15.75;;;7.55;;
75687;SDS011;64300;45.034;38.910;2023-03-25T10:25:01;12.82;;;7.60;;
75687;SDS011;64300;45.034;38.910;2023-03-25T10:32:39;11.02;;;5.50;;
75687;SDS011;64300;45.034;38.910;2023-03-25T10:35:45;11.40;;;5.78;;
75687;SDS011;64300;45.034;38.910;2023-03-25T10:38:27;10.38;;;5.25;;
75687;SDS011;64300;45.034;38.910;2023-03-25T10:43:49;12.02;;;5.88;;
75687;SDS011;64300;45.034;38.910;2023-03-25T10:46:24;12.32;;;6.38;;
75687;SDS011;64300;45.034;38.910;2023-03-25T10:49:04;12.68;;;7.32;;
75687;SDS011;64300;45.034;38.910;2023-03-25T10:51:31;13.88;;;7.30;;
75687;SDS011;64300;45.034;38.910;2023-03-25T10:53:59;12.98;;;6.97;;
75687;SDS011;64300;45.034;38.910;2023-03-25T11:02:18;9.70;;;5.68;;
75687;SDS011;64300;45.034;38.910;2023-03-25T11:04:48;9.68;;;5.85;;
75687;SDS011;64300;45.034;38.910;2023-03-25T11:07:20;10.55;;;5.85;;
75687;SDS011;64300;45.034;38.910;2023-03-25T11:09:50;12.80;;;6.45;;
75687;SDS011;64300;45.034;38.910;2023-03-25T11:12:17;14.50;;;7.30;;
75687;SDS011;64300;45.034;38.910;2023-03-25T11:14:53;13.20;;;5.70;;
75687;SDS011;64300;45.034;38.910;2023-03-25T11:17:23;8.98;;;4.95;;
75687;SDS011;64300;45.034;38.910;2023-03-25T11:19:52;9.68;;;5.07;;
75687;SDS011;64300;45.034;38.910;2023-03-25T11:22:22;8.50;;;4.78;;
75687;SDS011;64300;45.034;38.910;2023-03-25T11:24:55;8.68;;;4.72;;
75687;SDS011;64300;45.034;38.910;2023-03-25T11:27:30;9.80;;;5.00;;
75687;SDS011;64300;45.034;38.910;2023-03-25T11:30:13;10.68;;;5.43;;
75687;SDS011;64300;45.034;38.910;2023-03-25T11:32:44;11.40;;;5.57;;
75687;SDS011;64300;45.034;38.910;2023-03-25T11:35:44;11.75;;;6.00;;
75687;SDS011;64300;45.034;38.910;2023-03-25T11:38:22;10.35;;;5.38;;
75687;SDS011;64300;45.034;38.910;2023-03-25T11:40:57;12.30;;;5.80;;
75687;SDS011;64300;45.034;38.910;2023-03-25T11:43:24;13.77;;;6.78;;
75687;SDS011;64300;45.034;38.910;2023-03-25T11:45:54;14.45;;;6.70;;
75687;SDS011;64300;45.034;38.910;2023-03-25T11:48:21;10.18;;;5.35;;
75687;SDS011;64300;45.034;38.910;2023-03-25T11:50:53;14.23;;;7.45;;
75687;SDS011;64300;45.034;38.910;2023-03-25T11:53:24;11.45;;;6.30;;
75687;SDS011;64300;45.034;38.910;2023-03-25T11:55:56;10.00;;;6.15;;
75687;SDS011;64300;45.034;38.910;2023-03-25T11:58:26;9.82;;;6.05;;
75687;SDS011;64300;45.034;38.910;2023-03-25T12:03:50;9.68;;;5.28;;
75687;SDS011;64300;45.034;38.910;2023-03-25T12:06:19;9.73;;;4.95;;
75687;SDS011;64300;45.034;38.910;2023-03-25T12:11:23;11.10;;;5.75;;
75687;SDS011;64300;45.034;38.910;2023-03-25T12:16:49;11.70;;;6.70;;
75687;SDS011;64300;45.034;38.910;2023-03-25T12:19:28;10.65;;;6.45;;
75687;SDS011;64300;45.034;38.910;2023-03-25T12:25:11;13.70;;;8.23;;
75687;SDS011;64300;45.034;38.910;2023-03-25T12:36:21;14.68;;;8.98;;
75687;SDS011;64300;45.034;38.910;2023-03-25T12:41:48;16.20;;;7.80;;
75687;SDS011;64300;45.034;38.910;2023-03-25T12:58:04;22.63;;;7.45;;
75687;SDS011;64300;45.034;38.910;2023-03-25T13:06:21;14.68;;;8.82;;
75687;SDS011;64300;45.034;38.910;2023-03-25T13:09:09;17.83;;;9.13;;
75687;SDS011;64300;45.034;38.910;2023-03-25T13:11:46;14.10;;;8.02;;
75687;SDS011;64300;45.034;38.910;2023-03-25T13:14:24;15.75;;;8.55;;
75687;SDS011;64300;45.034;38.910;2023-03-25T13:17:29;16.08;;;8.55;;
75687;SDS011;64300;45.034;38.910;2023-03-25T13:20:09;15.80;;;7.68;;
75687;SDS011;64300;45.034;38.910;2023-03-25T13:22:43;14.48;;;8.23;;
75687;SDS011;64300;45.034;38.910;2023-03-25T13:25:20;13.52;;;8.25;;
75687;SDS011;64300;45.034;38.910;2023-03-25T13:27:52;13.85;;;8.23;;
75687;SDS011;64300;45.034;38.910;2023-03-25T13:30:26;14.30;;;8.23;;
75687;SDS011;64300;45.034;38.910;2023-03-25T13:32:56;13.75;;;7.95;;
75687;SDS011;64300;45.034;38.910;2023-03-25T13:35:33;16.00;;;8.32;;
75687;SDS011;64300;45.034;38.910;2023-03-25T13:38:25;13.77;;;7.80;;
75687;SDS011;64300;45.034;38.910;2023-03-25T13:44:02;15.90;;;7.35;;
75687;SDS011;64300;45.034;38.910;2023-03-25T13:46:30;14.18;;;7.03;;
75687;SDS011;64300;45.034;38.910;2023-03-25T13:51:27;12.77;;;8.18;;
75687;SDS011;64300;45.034;38.910;2023-03-25T14:00:08;11.95;;;6.30;;
75687;SDS011;64300;45.034;38.910;2023-03-25T14:05:21;12.80;;;6.93;;
75687;SDS011;64300;45.034;38.910;2023-03-25T14:13:44;17.58;;;8.77;;
75687;SDS011;64300;45.034;38.910;2023-03-25T14:16:17;15.75;;;8.55;;
75687;SDS011;64300;45.034;38.910;2023-03-25T14:18:48;16.83;;;8.55;;
75687;SDS011;64300;45.034;38.910;2023-03-25T14:24:16;17.50;;;8.90;;
75687;SDS011;64300;45.034;38.910;2023-03-25T14:26:51;15.43;;;8.40;;
75687;SDS011;64300;45.034;38.910;2023-03-25T14:30:03;15.90;;;8.70;;
75687;SDS011;64300;45.034;38.910;2023-03-25T14:34:40;16.23;;;9.05;;
75687;SDS011;64300;45.034;38.910;2023-03-25T14:42:00;18.17;;;9.35;;
75687;SDS011;64300;45.034;38.910;2023-03-25T14:44:29;14.52;;;9.00;;
75687;SDS011;64300;45.034;38.910;2023-03-25T14:52:44;18.77;;;10.75;;
75687;SDS011;64300;45.034;38.910;2023-03-25T14:55:34;18.38;;;10.10;;
75687;SDS011;64300;45.034;38.910;2023-03-25T14:58:15;18.40;;;9.88;;
75687;SDS011;64300;45.034;38.910;2023-03-25T15:04:28;18.05;;;9.70;;
75687;SDS011;64300;45.034;38.910;2023-03-25T15:07:02;18.50;;;9.07;;
75687;SDS011;64300;45.034;38.910;2023-03-25T15:09:38;21.40;;;9.18;;
75687;SDS011;64300;45.034;38.910;2023-03-25T15:12:17;21.15;;;11.63;;
75687;SDS011;64300;45.034;38.910;2023-03-25T15:14:47;19.35;;;9.57;;
75687;SDS011;64300;45.034;38.910;2023-03-25T15:24:02;20.60;;;9.93;;
75687;SDS011;64300;45.034;38.910;2023-03-25T15:26:33;18.27;;;9.50;;
75687;SDS011;64300;45.034;38.910;2023-03-25T15:37:36;18.25;;;9.00;;
75687;SDS011;64300;45.034;38.910;2023-03-25T15:40:30;21.98;;;9.15;;
75687;SDS011;64300;45.034;38.910;2023-03-25T15:43:21;15.82;;;8.90;;
75687;SDS011;64300;45.034;38.910;2023-03-25T15:46:08;18.75;;;9.30;;
75687;SDS011;64300;45.034;38.910;2023-03-25T15:54:30;16.02;;;9.07;;
75687;SDS011;64300;45.034;38.910;2023-03-25T15:57:05;25.13;;;9.95;;
75687;SDS011;64300;45.034;38.910;2023-03-25T16:00:01;18.63;;;9.52;;
75687;SDS011;64300;45.034;38.910;2023-03-25T16:05:48;22.23;;;10.18;;
75687;SDS011;64300;45.034;38.910;2023-03-25T16:08:29;21.55;;;11.80;;
75687;SDS011;64300;45.034;38.910;2023-03-25T16:14:11;23.25;;;9.00;;
75687;SDS011;64300;45.034;38.910;2023-03-25T16:16:52;21.92;;;10.10;;
75687;SDS011;64300;45.034;38.910;2023-03-25T16:25:04;23.73;;;10.75;;
75687;SDS011;64300;45.034;38.910;2023-03-25T16:27:40;23.92;;;11.00;;
75687;SDS011;64300;45.034;38.910;2023-03-25T16:30:26;27.45;;;11.32;;
75687;SDS011;64300;45.034;38.910;2023-03-25T16:33:03;27.92;;;11.20;;
75687;SDS011;64300;45.034;38.910;2023-03-25T16:35:44;26.00;;;11.35;;
75687;SDS011;64300;45.034;38.910;2023-03-25T16:38:13;25.75;;;12.15;;
75687;SDS011;64300;45.034;38.910;2023-03-25T16:40:45;32.38;;;12.07;;
75687;SDS011;64300;45.034;38.910;2023-03-25T16:43:16;27.23;;;11.75;;
75687;SDS011;64300;45.034;38.910;2023-03-25T16:45:46;24.15;;;11.48;;
75687;SDS011;64300;45.034;38.910;2023-03-25T16:48:15;28.92;;;12.70;;
75687;SDS011;64300;45.034;38.910;2023-03-25T16:50:52;28.90;;;13.07;;
75687;SDS011;64300;45.034;38.910;2023-03-25T16:53:20;26.95;;;12.73;;
75687;SDS011;64300;45.034;38.910;2023-03-25T16:55:57;25.40;;;12.82;;
75687;SDS011;64300;45.034;38.910;2023-03-25T16:58:36;27.50;;;12.93;;
75687;SDS011;64300;45.034;38.910;2023-03-25T17:01:19;29.00;;;12.48;;
75687;SDS011;64300;45.034;38.910;2023-03-25T17:03:46;30.25;;;14.10;;
75687;SDS011;64300;45.034;38.910;2023-03-25T17:06:23;23.52;;;13.02;;
75687;SDS011;64300;45.034;38.910;2023-03-25T17:08:56;29.65;;;13.35;;
75687;SDS011;64300;45.034;38.910;2023-03-25T17:11:27;27.08;;;12.57;;
75687;SDS011;64300;45.034;38.910;2023-03-25T17:13:59;28.50;;;13.60;;
75687;SDS011;64300;45.034;38.910;2023-03-25T17:19:16;29.13;;;13.57;;
75687;SDS011;64300;45.034;38.910;2023-03-25T17:24:55;34.92;;;13.52;;
75687;SDS011;64300;45.034;38.910;2023-03-25T17:27:41;26.20;;;13.35;;
75687;SDS011;64300;45.034;38.910;2023-03-25T17:30:19;32.78;;;13.88;;
75687;SDS011;64300;45.034;38.910;2023-03-25T17:33:07;35.30;;;14.57;;
75687;SDS011;64300;45.034;38.910;2023-03-25T17:35:35;34.83;;;13.85;;
75687;SDS011;64300;45.034;38.910;2023-03-25T17:38:02;33.00;;;14.18;;
75687;SDS011;64300;45.034;38.910;2023-03-25T17:40:29;31.05;;;13.80;;
75687;SDS011;64300;45.034;38.910;2023-03-25T17:42:55;33.33;;;14.90;;
75687;SDS011;64300;45.034;38.910;2023-03-25T17:45:24;28.75;;;14.25;;
75687;SDS011;64300;45.034;38.910;2023-03-25T17:47:50;32.83;;;15.27;;
75687;SDS011;64300;45.034;38.910;2023-03-25T17:50:21;42.78;;;14.63;;
75687;SDS011;64300;45.034;38.910;2023-03-25T17:52:52;31.33;;;14.95;;
75687;SDS011;64300;45.034;38.910;2023-03-25T17:55:19;36.33;;;15.25;;
75687;SDS011;64300;45.034;38.910;2023-03-25T17:57:45;32.45;;;15.15;;
75687;SDS011;64300;45.034;38.910;2023-03-25T18:00:14;39.17;;;16.10;;
75687;SDS011;64300;45.034;38.910;2023-03-25T18:02:43;26.42;;;14.77;;
75687;SDS011;64300;45.034;38.910;2023-03-25T18:05:10;29.05;;;15.05;;
75687;SDS011;64300;45.034;38.910;2023-03-25T18:07:36;29.98;;;14.13;;
75687;SDS011;64300;45.034;38.910;2023-03-25T18:10:08;35.58;;;14.57;;
75687;SDS011;64300;45.034;38.910;2023-03-25T18:12:41;33.65;;;14.93;;
75687;SDS011;64300;45.034;38.910;2023-03-25T18:15:07;33.75;;;14.63;;
75687;SDS011;64300;45.034;38.910;2023-03-25T18:17:35;30.75;;;15.07;;
75687;SDS011;64300;45.034;38.910;2023-03-25T18:20:04;29.60;;;14.57;;